Time;durP1;ratioP1;P1;durP2;ratioP2;P2;SDS_P1;SDS_P2;PMS_P1;PMS_P2;Temp;Humidity;BMP_temperature;BMP_pressure;BME280_temperature;BME280_humidity;BME280_pressure;Samples;Min_cycle;Max_cycle;Signal;HPM_P1;HPM_P2
2021/12/10 00:04:21;;;;;;;34.35;14.25;;;;;;;2.86;100.00;100183.38;10541632;28;20048;-57
2021/12/10 00:09:30;;;;;;;19.77;12.73;;;;;;;2.67;100.00;100172.84;10541638;28;20047;-57
2021/12/10 00:14:35;;;;;;;31.40;13.52;;;;;;;2.67;100.00;100168.50;10541602;28;20052;-55
2021/12/10 00:19:47;;;;;;;27.15;13.82;;;;;;;2.63;100.00;100148.03;10541250;28;20078;-58
2021/12/10 00:24:52;;;;;;;24.95;12.98;;;;;;;2.49;100.00;100141.59;10541182;28;20052;-56
2021/12/10 00:30:06;;;;;;;20.35;13.00;;;;;;;2.46;100.00;100120.19;10540791;28;20048;-55
2021/12/10 00:35:17;;;;;;;25.38;13.68;;;;;;;2.45;100.00;100111.56;10539414;28;20398;-54
2021/12/10 00:40:21;;;;;;;28.80;14.02;;;;;;;2.23;100.00;100101.97;10540821;28;20052;-58
2021/12/10 00:45:24;;;;;;;30.85;15.35;;;;;;;2.20;100.00;100109.84;10540754;28;20062;-56
2021/12/10 00:50:35;;;;;;;32.55;15.38;;;;;;;2.11;100.00;100091.22;10540271;28;20044;-57
2021/12/10 00:55:38;;;;;;;26.88;15.32;;;;;;;2.11;100.00;100092.06;10540616;28;20056;-55
2021/12/10 01:00:44;;;;;;;35.25;15.65;;;;;;;2.13;100.00;100079.94;10540130;28;20044;-57
2021/12/10 01:05:49;;;;;;;28.33;15.13;;;;;;;2.29;100.00;100087.19;10540487;28;20044;-55
2021/12/10 01:10:55;;;;;;;26.83;14.82;;;;;;;2.16;100.00;100059.16;10539604;28;20058;-57
2021/12/10 01:31:52;;;;;;;24.63;14.13;;;;;;;1.82;100.00;100024.19;10548327;28;20044;-57
2021/12/10 01:36:55;;;;;;;23.60;14.45;;;;;;;2.08;100.00;100019.03;10547792;28;20058;-55
2021/12/10 01:42:12;;;;;;;26.63;13.50;;;;;;;1.69;100.00;100012.56;10547605;28;20063;-58
2021/12/10 01:47:17;;;;;;;24.55;13.75;;;;;;;1.58;100.00;100002.63;10547529;28;20051;-57
2021/12/10 01:52:20;;;;;;;24.13;14.23;;;;;;;1.60;100.00;99993.09;10547528;28;20055;-57
2021/12/10 01:57:28;;;;;;;23.50;13.43;;;;;;;1.60;100.00;99982.75;10546897;28;20492;-56
2021/12/10 02:02:34;;;;;;;22.40;13.77;;;;;;;1.47;100.00;99968.59;10547268;28;20061;-54
2021/12/10 02:07:36;;;;;;;29.58;14.45;;;;;;;1.40;100.00;99960.19;10546457;28;20048;-57
2021/12/10 02:12:39;;;;;;;23.95;13.27;;;;;;;1.35;100.00;99954.34;10545912;28;20052;-56
2021/12/10 02:17:45;;;;;;;24.63;13.50;;;;;;;1.33;100.00;99939.81;10546339;28;20051;-57
2021/12/10 02:22:48;;;;;;;27.52;13.98;;;;;;;1.36;100.00;99929.41;10546552;28;20051;-58
2021/12/10 02:27:51;;;;;;;26.50;12.07;;;;;;;1.17;100.00;99905.97;10546054;28;20055;-56
2021/12/10 02:32:53;;;;;;;24.73;12.65;;;;;;;1.05;100.00;99913.19;10545451;28;20513;-52
2021/12/10 02:37:56;;;;;;;21.80;11.57;;;;;;;1.04;100.00;99932.16;10545839;28;20048;-55
2021/12/10 02:43:02;;;;;;;20.48;11.07;;;;;;;1.01;100.00;99903.88;10544883;28;20052;-56
2021/12/10 02:48:06;;;;;;;18.60;10.40;;;;;;;1.19;100.00;99891.28;10545106;28;20051;-55
2021/12/10 02:53:09;;;;;;;17.75;9.77;;;;;;;1.07;100.00;99879.63;10544698;28;20047;-53
2021/12/10 02:58:14;;;;;;;18.80;9.88;;;;;;;1.09;100.00;99870.97;10544654;28;20071;-58
2021/12/10 03:03:16;;;;;;;19.90;9.82;;;;;;;1.09;100.00;99858.06;10544398;28;20044;-55
2021/12/10 03:08:19;;;;;;;17.88;9.98;;;;;;;0.82;100.00;99841.75;10544174;28;20051;-54
2021/12/10 03:13:21;;;;;;;13.73;8.55;;;;;;;0.90;100.00;99837.19;10544332;28;20044;-57
2021/12/10 03:18:23;;;;;;;14.77;7.75;;;;;;;1.04;100.00;99836.75;10543998;28;20044;-54
2021/12/10 03:23:26;;;;;;;14.93;7.57;;;;;;;0.95;100.00;99825.91;10543568;28;20044;-58
2021/12/10 03:28:28;;;;;;;17.00;7.90;;;;;;;1.15;100.00;99817.50;10543204;28;20052;-57
2021/12/10 03:33:31;;;;;;;15.77;8.15;;;;;;;1.23;100.00;99812.94;10543086;28;20047;-57
2021/12/10 03:38:35;;;;;;;14.93;9.35;;;;;;;1.19;100.00;99799.28;10543089;28;20055;-58
2021/12/10 03:43:38;;;;;;;19.40;8.77;;;;;;;1.29;100.00;99792.06;10542110;28;20078;-56
2021/12/10 03:48:42;;;;;;;15.35;8.32;;;;;;;1.33;100.00;99788.50;10542372;28;20071;-55
2021/12/10 03:53:46;;;;;;;18.15;8.32;;;;;;;1.30;100.00;99780.88;10542121;28;20048;-57
2021/12/10 03:58:49;;;;;;;20.83;9.57;;;;;;;1.26;100.00;99763.81;10542735;28;20051;-58
2021/12/10 04:03:53;;;;;;;18.30;6.70;;;;;;;1.20;100.00;99754.56;10541822;28;20480;-56
2021/12/10 04:08:56;;;;;;;12.20;6.63;;;;;;;1.39;100.00;99753.91;10541738;28;20048;-55
2021/12/10 04:13:59;;;;;;;13.55;6.38;;;;;;;1.38;100.00;99754.78;10541482;28;20044;-54
2021/12/10 04:19:05;;;;;;;14.50;6.03;;;;;;;1.50;100.00;99759.53;10541467;28;20048;-56
2021/12/10 04:24:17;;;;;;;14.60;6.10;;;;;;;1.48;100.00;99735.53;10539928;28;20494;-56
2021/12/10 04:29:20;;;;;;;14.73;5.85;;;;;;;1.40;100.00;99716.91;10540898;28;20043;-58
2021/12/10 04:34:24;;;;;;;9.00;5.63;;;;;;;1.48;100.00;99707.16;10540878;28;20047;-56
2021/12/10 04:39:27;;;;;;;11.23;4.93;;;;;;;1.46;100.00;99703.75;10540542;28;20052;-54
2021/12/10 04:44:30;;;;;;;11.45;5.15;;;;;;;1.55;100.00;99703.44;10540394;28;20060;-57
2021/12/10 04:49:32;;;;;;;12.63;5.20;;;;;;;1.49;100.00;99683.84;10540464;28;20052;-55
2021/12/10 04:54:35;;;;;;;10.93;4.78;;;;;;;1.51;100.00;99676.06;10539102;28;20047;-55
2021/12/10 04:59:39;;;;;;;9.10;4.78;;;;;;;1.47;100.00;99659.84;10538734;28;20484;-59
2021/12/10 05:04:43;;;;;;;10.48;4.70;;;;;;;1.58;100.00;99659.47;10539862;28;20052;-53
2021/12/10 05:09:46;;;;;;;10.25;4.45;;;;;;;1.55;100.00;99645.84;10539545;28;20054;-56
2021/12/10 05:14:48;;;;;;;12.65;5.45;;;;;;;1.45;100.00;99627.28;10538453;28;20514;-56
2021/12/10 05:19:51;;;;;;;9.95;4.93;;;;;;;1.47;100.00;99616.00;10539541;28;20052;-56
2021/12/10 05:24:54;;;;;;;14.23;5.15;;;;;;;1.57;100.00;99610.50;10539617;28;20040;-57
2021/12/10 05:29:56;;;;;;;12.35;4.70;;;;;;;1.48;100.00;99612.53;10538182;28;20052;-55
2021/12/10 05:34:59;;;;;;;10.30;4.72;;;;;;;1.44;100.00;99602.38;10539772;28;20040;-56
2021/12/10 05:40:04;;;;;;;13.73;6.90;;;;;;;1.61;100.00;99612.88;10538732;28;20052;-54
2021/12/10 05:45:07;;;;;;;13.10;5.60;;;;;;;1.52;100.00;99590.03;10539683;28;20404;-57
2021/12/10 05:50:10;;;;;;;15.48;5.13;;;;;;;1.61;100.00;99584.50;10539025;28;20049;-56
2021/12/10 05:55:13;;;;;;;17.40;5.45;;;;;;;1.55;100.00;99576.19;10537787;28;20514;-56
2021/12/10 06:00:48;;;;;;;15.70;4.95;;;;;;;1.64;100.00;99584.38;10538153;28;20044;-56
2021/12/10 06:05:52;;;;;;;11.45;4.43;;;;;;;1.58;100.00;99570.88;10544779;28;20040;-57
2021/12/10 06:10:56;;;;;;;16.83;5.03;;;;;;;1.60;100.00;99569.94;10546718;28;20048;-53
2021/12/10 06:15:58;;;;;;;13.30;4.13;;;;;;;1.56;100.00;99564.94;10546250;28;20044;-53
2021/12/10 06:21:01;;;;;;;11.13;4.03;;;;;;;1.65;100.00;99557.69;10545829;28;20044;-54
2021/12/10 06:26:04;;;;;;;9.60;4.28;;;;;;;1.65;100.00;99560.28;10545700;28;20058;-55
2021/12/10 06:31:09;;;;;;;14.27;3.90;;;;;;;1.72;100.00;99547.13;10545932;28;20052;-55
2021/12/10 06:36:12;;;;;;;12.88;3.83;;;;;;;1.77;100.00;99546.03;10545769;28;20050;-53
2021/12/10 06:41:16;;;;;;;10.88;3.95;;;;;;;1.67;100.00;99549.88;10544178;28;20048;-56
2021/12/10 06:46:18;;;;;;;11.88;4.60;;;;;;;1.75;100.00;99546.97;10545508;28;20040;-55
2021/12/10 06:51:21;;;;;;;11.13;4.00;;;;;;;1.78;100.00;99544.28;10544826;28;20403;-57
2021/12/10 06:56:24;;;;;;;14.43;3.90;;;;;;;1.79;100.00;99541.63;10545170;28;20044;-55
2021/12/10 07:01:31;;;;;;;12.27;3.22;;;;;;;1.84;100.00;99541.44;10544150;28;20052;-55
2021/12/10 07:06:33;;;;;;;9.00;3.58;;;;;;;1.82;100.00;99541.50;10543971;28;20050;-56
2021/12/10 07:11:36;;;;;;;10.10;3.45;;;;;;;1.81;100.00;99539.00;10543721;28;20420;-56
2021/12/10 07:16:39;;;;;;;12.02;3.28;;;;;;;1.89;100.00;99541.28;10543300;28;20477;-55
2021/12/10 07:21:42;;;;;;;9.55;3.45;;;;;;;1.95;100.00;99548.75;10543821;28;20040;-55
2021/12/10 07:26:44;;;;;;;13.05;3.75;;;;;;;1.94;100.00;99534.16;10543494;28;20044;-57
2021/12/10 07:31:47;;;;;;;12.35;3.22;;;;;;;1.99;100.00;99534.81;10541917;28;20047;-54
2021/12/10 07:36:49;;;;;;;8.07;3.50;;;;;;;2.10;100.00;99539.50;10542112;28;20131;-55
2021/12/10 07:41:53;;;;;;;17.65;4.70;;;;;;;2.09;100.00;99538.69;10542572;28;20087;-57
2021/12/10 07:46:56;;;;;;;8.82;4.90;;;;;;;2.14;100.00;99546.25;10542928;28;20047;-55
2021/12/10 07:52:00;;;;;;;10.77;4.13;;;;;;;2.15;100.00;99545.31;10542330;28;20565;-56
2021/12/10 07:57:02;;;;;;;15.00;4.50;;;;;;;2.35;100.00;99549.63;10542730;28;20048;-57
2021/12/10 08:02:06;;;;;;;8.35;3.90;;;;;;;2.32;100.00;99558.38;10541915;28;20051;-57
2021/12/10 08:07:10;;;;;;;15.15;4.88;;;;;;;2.37;100.00;99553.84;10542129;28;20044;-59
2021/12/10 08:12:12;;;;;;;11.50;4.55;;;;;;;2.46;100.00;99551.75;10541600;28;20048;-54
2021/12/10 08:17:15;;;;;;;10.48;5.13;;;;;;;2.48;100.00;99555.94;10542245;28;20055;-57
2021/12/10 08:22:17;;;;;;;9.35;4.30;;;;;;;2.57;100.00;99557.28;10541136;28;20051;-56
2021/12/10 08:27:19;;;;;;;11.35;5.68;;;;;;;2.64;100.00;99563.00;10541000;28;20385;-56
2021/12/10 08:32:22;;;;;;;12.75;4.35;;;;;;;2.66;100.00;99571.56;10540938;28;20048;-54
2021/12/10 08:37:24;;;;;;;10.70;4.95;;;;;;;2.65;100.00;99555.19;10540699;28;20495;-57
2021/12/10 08:42:27;;;;;;;9.10;4.15;;;;;;;2.72;100.00;99566.97;10540782;28;20054;-58
2021/12/10 08:47:29;;;;;;;10.40;3.75;;;;;;;2.72;100.00;99561.78;10540563;28;20055;-54
2021/12/10 08:52:32;;;;;;;17.25;4.13;;;;;;;2.84;100.00;99560.41;10540315;28;20400;-57
2021/12/10 08:57:35;;;;;;;10.10;4.18;;;;;;;2.82;100.00;99566.53;10540563;28;20048;-57
2021/12/10 09:02:38;;;;;;;12.73;4.93;;;;;;;2.92;99.40;99563.44;10539780;28;20040;-57
2021/12/10 09:07:43;;;;;;;12.15;3.88;;;;;;;3.00;99.47;99570.88;10540982;28;20059;-55
2021/12/10 09:12:46;;;;;;;8.25;3.38;;;;;;;2.98;99.14;99576.09;10539775;28;20048;-56
2021/12/10 09:17:50;;;;;;;11.27;3.28;;;;;;;3.03;99.18;99582.84;10539576;28;20055;-57
2021/12/10 09:22:53;;;;;;;11.63;3.53;;;;;;;3.14;98.90;99581.44;10539319;28;20044;-56
2021/12/10 09:27:56;;;;;;;4.00;2.63;;;;;;;3.03;99.09;99580.25;10539269;28;20476;-58
2021/12/10 09:32:58;;;;;;;9.85;3.25;;;;;;;3.15;98.16;99579.69;10539105;28;20044;-58
2021/12/10 09:38:01;;;;;;;9.65;2.85;;;;;;;3.12;97.11;99570.28;10540719;28;20048;-55
2021/12/10 09:43:05;;;;;;;14.10;3.42;;;;;;;3.10;96.89;99581.63;10547343;28;20055;-55
2021/12/10 09:48:11;;;;;;;9.88;3.00;;;;;;;3.24;95.94;99578.41;10546210;28;20060;-57
2021/12/10 09:53:14;;;;;;;8.77;2.83;;;;;;;3.26;95.60;99577.44;10548052;28;20040;-57
2021/12/10 09:58:20;;;;;;;13.60;3.45;;;;;;;3.37;96.05;99595.03;10547281;28;20079;-56
2021/12/10 10:03:26;;;;;;;8.52;2.60;;;;;;;3.38;94.31;99588.09;10545341;28;20404;-55
2021/12/10 10:08:28;;;;;;;8.85;2.40;;;;;;;3.41;92.79;99583.63;10529476;28;20047;-56
2021/12/10 10:13:37;;;;;;;8.95;2.72;;;;;;;3.47;93.11;99579.91;10546622;28;20048;-57
2021/12/10 10:18:41;;;;;;;7.82;2.72;;;;;;;3.57;94.29;99588.09;10546725;28;20074;-59
2021/12/10 10:23:44;;;;;;;15.85;2.90;;;;;;;3.53;93.49;99566.66;10545690;28;20480;-59
2021/12/10 10:28:46;;;;;;;6.53;2.33;;;;;;;3.62;93.21;99580.94;10545902;28;20089;-57
2021/12/10 10:33:52;;;;;;;7.10;2.97;;;;;;;3.64;93.43;99564.41;10546087;28;20040;-55
2021/12/10 10:39:21;;;;;;;8.73;2.53;;;;;;;3.69;91.70;99577.97;10545489;28;20051;-56
2021/12/10 10:44:25;;;;;;;11.80;2.42;;;;;;;3.79;91.33;99570.59;10539630;28;20052;-56
2021/12/10 10:49:35;;;;;;;10.25;2.85;;;;;;;4.07;91.27;99564.91;10543715;28;20040;-57
2021/12/10 10:54:37;;;;;;;9.95;2.63;;;;;;;4.15;91.31;99574.03;10544488;28;20052;-58
2021/12/10 10:59:40;;;;;;;4.65;2.25;;;;;;;4.05;88.85;99566.72;10544201;28;20060;-55
2021/12/10 11:04:45;;;;;;;13.75;2.85;;;;;;;4.06;89.08;99560.63;10544706;28;20047;-56
2021/12/10 11:09:52;;;;;;;7.13;2.53;;;;;;;4.02;87.96;99551.34;10544257;28;20048;-55
2021/12/10 11:14:57;;;;;;;5.72;2.33;;;;;;;4.04;88.05;99551.25;10544238;28;20050;-56
2021/12/10 11:20:09;;;;;;;10.10;2.78;;;;;;;4.16;88.38;99560.16;10543770;28;20494;-57
2021/12/10 11:25:14;;;;;;;;;;;;;;;4.10;87.72;99561.28;10544701;28;20043;-59
2021/12/10 11:30:22;;;;;;;9.95;2.78;;;;;;;4.01;88.13;99565.19;10543197;28;19920;-57
2021/12/10 11:35:26;;;;;;;8.25;2.63;;;;;;;4.14;86.60;99567.19;10543880;28;20040;-57
2021/12/10 11:40:40;;;;;;;8.50;2.67;;;;;;;4.21;87.48;99571.97;10541918;28;20130;-56
2021/12/10 11:45:51;;;;;;;11.02;3.13;;;;;;;4.14;86.62;99562.00;10542502;28;20044;-56
2021/12/10 11:51:37;;;;;;;8.85;2.72;;;;;;;4.39;87.08;99580.56;10542597;28;20041;-55
2021/12/10 11:56:42;;;;;;;12.27;3.03;;;;;;;4.23;85.52;99570.13;10494409;28;20051;-58
2021/12/10 12:01:56;;;;;;;7.82;3.53;;;;;;;4.32;86.74;99581.78;10541615;28;20396;-56
2021/12/10 12:07:20;;;;;;;7.93;2.40;;;;;;;4.36;85.89;99572.94;10541909;28;20419;-55
2021/12/10 12:12:26;;;;;;;6.82;2.92;;;;;;;4.31;85.27;99673.41;10542105;28;20059;-55
2021/12/10 12:17:42;;;;;;;6.65;2.25;;;;;;;4.41;86.25;99651.28;10540820;28;20052;-55
2021/12/10 12:28:11;;;;;;;8.95;4.75;;;;;;;4.32;85.78;99661.28;10540206;28;20043;-52
2021/12/10 12:33:58;;;;;;;4.32;2.55;;;;;;;4.60;86.32;99668.50;10541606;28;20101;-54
2021/12/10 12:39:02;;;;;;;10.90;2.90;;;;;;;4.33;84.40;99665.56;10540441;28;20052;-54
2021/12/10 12:44:10;;;;;;;9.32;2.90;;;;;;;4.39;83.37;99658.31;10540968;28;20082;-54
2021/12/10 12:49:48;;;;;;;10.43;2.67;;;;;;;4.35;83.83;99663.72;10540481;28;20044;-52
2021/12/10 12:55:15;;;;;;;9.13;2.75;;;;;;;4.44;84.89;99677.06;10540500;28;20055;-55
2021/12/10 13:00:40;;;;;;;9.30;3.20;;;;;;;4.30;85.39;99682.06;10540204;28;20044;-56
2021/12/10 13:06:08;;;;;;;6.53;2.80;;;;;;;4.31;86.00;99676.00;10539954;28;20399;-55
2021/12/10 13:11:34;;;;;;;12.45;3.05;;;;;;;4.48;86.58;99680.34;10537342;28;20044;-54
2021/12/10 13:16:52;;;;;;;8.52;3.05;;;;;;;4.39;86.70;99692.00;10539262;28;20051;-58
2021/12/10 13:22:08;;;;;;;8.68;2.90;;;;;;;4.25;85.58;99687.50;10539720;28;20048;-58
2021/12/10 13:27:11;;;;;;;7.80;2.92;;;;;;;4.32;84.12;99708.78;10539310;28;20052;-52
2021/12/10 13:32:25;;;;;;;8.75;2.95;;;;;;;4.37;85.42;99706.78;10539833;28;20050;-55
2021/12/10 13:37:27;;;;;;;8.32;3.30;;;;;;;4.75;84.36;99718.75;10539447;28;20044;-53
2021/12/10 13:42:30;;;;;;;6.22;3.28;;;;;;;4.34;84.08;99706.06;10537998;28;20053;-55
2021/12/10 13:47:40;;;;;;;9.55;3.22;;;;;;;4.41;84.27;99710.91;10538623;28;20048;-54
2021/12/10 13:53:00;;;;;;;4.57;2.78;;;;;;;4.37;85.44;99724.94;10539766;28;20048;-56
2021/12/10 13:58:25;;;;;;;6.10;3.00;;;;;;;4.36;82.60;99727.59;10538948;28;20044;-58
2021/12/10 14:03:42;;;;;;;5.72;2.72;;;;;;;4.36;86.97;99738.78;10539255;28;20133;-56
2021/12/10 14:08:52;;;;;;;9.75;3.60;;;;;;;4.40;88.79;99744.66;10538764;28;20079;-56
2021/12/10 14:14:07;;;;;;;6.90;3.45;;;;;;;4.59;87.45;99765.34;10537146;28;20059;-56
2021/12/10 14:19:09;;;;;;;7.15;3.35;;;;;;;4.46;90.19;99752.16;10538633;28;20044;-56
2021/12/10 14:24:34;;;;;;;;;;;;;;;4.47;89.84;99770.22;10539532;28;20094;-55
2021/12/10 14:30:40;;;;;;;6.25;2.97;;;;;;;4.31;90.65;99774.47;10546624;28;19920;-56
2021/12/10 14:35:56;;;;;;;8.75;3.63;;;;;;;4.23;90.67;99774.81;10497276;28;20048;-55
2021/12/10 14:41:05;;;;;;;9.00;4.15;;;;;;;4.23;90.66;99785.19;10544684;28;20136;-54
2021/12/10 14:46:35;;;;;;;7.80;3.92;;;;;;;4.24;90.35;99783.44;10545194;28;20442;-56
2021/12/10 14:52:26;;;;;;;9.60;3.90;;;;;;;4.33;89.06;99792.53;10545236;28;20120;-57
2021/12/10 14:57:53;;;;;;;10.65;3.83;;;;;;;4.13;91.57;99803.81;10545128;28;20055;-56
2021/12/10 15:03:28;;;;;;;3.65;3.30;;;;;;;3.96;91.37;99808.03;10544245;28;20160;-54
2021/12/10 15:08:57;;;;;;;18.10;3.60;;;;;;;4.26;86.04;99833.44;10544918;28;20101;-57
2021/12/10 15:14:32;;;;;;;9.15;3.58;;;;;;;3.97;90.22;99827.84;10543957;28;20044;-54
2021/12/10 15:19:43;;;;;;;8.40;3.17;;;;;;;4.04;90.23;99842.19;10543925;28;20044;-55
2021/12/10 15:24:49;;;;;;;6.40;3.58;;;;;;;4.08;93.09;99853.25;10543807;28;20101;-58
2021/12/10 15:30:07;;;;;;;5.85;2.58;;;;;;;3.62;94.31;99848.38;10543646;28;20086;-55
2021/12/10 15:35:42;;;;;;;15.52;3.35;;;;;;;4.00;93.74;99876.94;10542924;28;20101;-56
2021/12/10 15:40:53;;;;;;;4.65;3.53;;;;;;;3.84;95.71;99883.69;10543385;28;20130;-57
2021/12/10 15:46:00;;;;;;;2.75;2.30;;;;;;;3.76;98.76;99896.13;10541857;28;20052;-55
2021/12/10 15:51:10;;;;;;;8.32;4.72;;;;;;;3.61;100.00;99895.88;10542401;28;20044;-54
2021/12/10 15:56:16;;;;;;;8.60;4.75;;;;;;;3.76;100.00;99920.25;10541133;28;20476;-56
2021/12/10 16:01:23;;;;;;;11.23;5.82;;;;;;;3.89;99.46;99920.59;10542251;28;20048;-55
2021/12/10 16:06:26;;;;;;;9.68;4.93;;;;;;;3.70;100.00;99931.75;10542674;28;20044;-57
2021/12/10 16:11:29;;;;;;;7.82;3.58;;;;;;;3.83;100.00;99951.91;10541571;28;20052;-58
2021/12/10 16:16:35;;;;;;;12.13;5.82;;;;;;;3.74;100.00;99967.84;10541708;28;20054;-57
2021/12/10 16:21:47;;;;;;;11.15;4.95;;;;;;;3.64;100.00;99978.59;10541770;28;20127;-52
2021/12/10 16:27:00;;;;;;;11.40;5.75;;;;;;;3.58;100.00;99975.41;10542023;28;20040;-57
2021/12/10 16:32:12;;;;;;;15.13;5.65;;;;;;;3.65;100.00;99989.81;10541060;28;20052;-56
2021/12/10 16:37:17;;;;;;;10.35;5.07;;;;;;;3.46;100.00;99982.78;10541359;28;20040;-52
2021/12/10 16:42:19;;;;;;;9.20;5.38;;;;;;;3.65;99.78;100001.00;10540205;28;20059;-56
2021/12/10 16:47:26;;;;;;;13.02;5.53;;;;;;;3.45;100.00;100000.97;10540574;28;20051;-53
2021/12/10 16:52:34;;;;;;;17.75;7.82;;;;;;;3.65;99.45;100013.94;10540525;28;20101;-55
2021/12/10 16:57:41;;;;;;;18.13;8.15;;;;;;;3.67;100.00;100032.81;10540036;28;20412;-54
2021/12/10 17:02:46;;;;;;;10.32;6.55;;;;;;;3.49;100.00;100036.16;10538730;28;20055;-57
2021/12/10 17:07:50;;;;;;;11.63;6.35;;;;;;;3.59;100.00;100042.66;10540060;28;20048;-56
2021/12/10 17:12:54;;;;;;;16.67;6.22;;;;;;;3.54;100.00;100054.94;10540068;28;20131;-55
2021/12/10 17:18:02;;;;;;;16.92;8.23;;;;;;;3.68;100.00;100068.19;10539909;28;20051;-56
2021/12/10 17:23:07;;;;;;;12.20;7.22;;;;;;;3.37;100.00;100068.53;10539329;28;20052;-55
2021/12/10 17:28:12;;;;;;;15.73;7.90;;;;;;;3.57;100.00;100078.13;10538423;28;20051;-55
2021/12/10 17:33:29;;;;;;;11.25;6.90;;;;;;;3.59;100.00;100102.19;10539511;28;20048;-54
2021/12/10 17:38:34;;;;;;;20.92;10.82;;;;;;;3.43;100.00;100095.91;10539573;28;20048;-53
2021/12/10 17:43:40;;;;;;;19.63;9.15;;;;;;;3.61;100.00;100115.91;10539436;28;20055;-54
2021/12/10 17:48:52;;;;;;;14.88;10.02;;;;;;;3.24;100.00;100106.97;10539518;28;20052;-56
2021/12/10 17:53:57;;;;;;;16.65;9.85;;;;;;;3.44;100.00;100113.97;10539038;28;20052;-57
2021/12/10 17:59:00;;;;;;;22.02;9.73;;;;;;;3.47;100.00;100138.91;10539542;28;20051;-50
2021/12/10 18:04:03;;;;;;;11.60;9.05;;;;;;;3.33;100.00;100136.84;10545765;28;20051;-55
2021/12/10 18:09:21;;;;;;;11.85;8.13;;;;;;;3.46;100.00;100151.03;10547362;28;20048;-57
2021/12/10 18:14:34;;;;;;;17.20;8.15;;;;;;;3.53;100.00;100173.16;10546215;28;20048;-58
2021/12/10 18:19:39;;;;;;;10.93;7.88;;;;;;;3.17;100.00;100163.28;10545458;28;20063;-54
2021/12/10 18:24:41;;;;;;;19.35;9.48;;;;;;;3.51;100.00;100187.06;10545865;28;20055;-55
2021/12/10 18:29:44;;;;;;;17.27;9.52;;;;;;;3.38;100.00;100196.19;10544492;28;20051;-57
2021/12/10 18:34:49;;;;;;;14.63;8.73;;;;;;;3.30;100.00;100202.50;10545807;28;20123;-57
2021/12/10 18:40:19;;;;;;;13.73;7.70;;;;;;;3.12;100.00;100214.34;10545387;28;20063;-54
2021/12/10 18:45:23;;;;;;;11.85;8.57;;;;;;;3.08;100.00;100225.72;10543408;28;20052;-58
2021/12/10 18:50:33;;;;;;;14.27;8.13;;;;;;;3.23;100.00;100245.00;10545318;28;20056;-52
2021/12/10 18:55:39;;;;;;;17.27;8.98;;;;;;;3.02;100.00;100240.59;10544842;28;20392;-52
2021/12/10 19:00:48;;;;;;;15.85;8.88;;;;;;;3.34;100.00;100265.31;10544502;28;20074;-54
2021/12/10 19:06:03;;;;;;;14.63;10.45;;;;;;;3.01;100.00;100270.78;10544872;28;20040;-54
2021/12/10 19:11:13;;;;;;;16.67;9.98;;;;;;;2.79;100.00;100274.09;10542811;28;20044;-57
2021/12/10 19:16:26;;;;;;;19.73;9.23;;;;;;;2.82;100.00;100287.81;10544099;28;20123;-53
2021/12/10 19:21:47;;;;;;;13.05;9.05;;;;;;;2.52;100.00;100278.44;10543728;28;20059;-54
2021/12/10 19:26:56;;;;;;;20.40;8.80;;;;;;;2.54;100.00;100302.50;10543768;28;20044;-53
2021/12/10 19:31:59;;;;;;;17.00;8.98;;;;;;;1.97;100.00;100296.50;10543352;28;20044;-55
2021/12/10 19:37:33;;;;;;;14.23;8.55;;;;;;;1.90;100.00;100305.31;10543125;28;20514;-58
2021/12/10 19:42:58;;;;;;;13.95;9.25;;;;;;;1.74;100.00;100315.25;10533613;28;20059;-55
2021/12/10 19:48:11;;;;;;;16.48;9.65;;;;;;;1.32;100.00;100319.88;10542881;28;20040;-54
2021/12/10 19:53:26;;;;;;;16.98;9.80;;;;;;;1.35;100.00;100330.09;10542149;28;20392;-56
2021/12/10 19:58:34;;;;;;;13.60;8.43;;;;;;;1.39;100.00;100349.75;10542493;28;20048;-55
2021/12/10 20:03:42;;;;;;;12.73;8.63;;;;;;;1.14;100.00;100345.22;10541485;28;20048;-54
2021/12/10 20:08:52;;;;;;;17.67;8.90;;;;;;;0.77;100.00;100353.88;10542028;28;20063;-54
2021/12/10 20:13:57;;;;;;;22.88;12.40;;;;;;;0.90;100.00;100381.06;10542487;28;20044;-56
2021/12/10 20:19:11;;;;;;;16.48;10.18;;;;;;;0.67;100.00;100388.47;10541690;28;20167;-54
2021/12/10 20:24:18;;;;;;;20.20;9.65;;;;;;;0.58;100.00;100392.13;10540789;28;20044;-56
2021/12/10 20:29:28;;;;;;;15.38;9.32;;;;;;;0.60;100.00;100413.53;10541504;28;20044;-54
2021/12/10 20:34:38;;;;;;;16.98;9.35;;;;;;;0.48;100.00;100414.66;10541119;28;20044;-55
2021/12/10 20:39:48;;;;;;;18.23;10.63;;;;;;;0.33;100.00;100418.41;10540967;28;20396;-55
2021/12/10 20:45:19;;;;;;;17.33;10.25;;;;;;;0.17;100.00;100427.34;10540486;28;20059;-55
2021/12/10 20:50:32;;;;;;;15.52;9.73;;;;;;;0.35;100.00;100449.28;10539842;28;20105;-56
2021/12/10 20:55:46;;;;;;;16.88;9.52;;;;;;;0.49;100.00;100461.88;10540887;28;20048;-54
2021/12/10 21:01:01;;;;;;;16.35;9.65;;;;;;;0.03;100.00;100476.50;10540155;28;20430;-53
2021/12/10 21:06:07;;;;;;;24.10;8.93;;;;;;;0.27;100.00;100490.66;10540582;28;20052;-55
2021/12/10 21:11:40;;;;;;;14.05;9.40;;;;;;;0.13;100.00;100513.22;10539821;28;20050;-54
2021/12/10 21:16:47;;;;;;;15.75;9.55;;;;;;;-0.13;100.00;100496.53;10538606;28;20048;-57
2021/12/10 21:21:54;;;;;;;15.07;9.65;;;;;;;0.02;100.00;100518.59;10538528;28;20052;-53
2021/12/10 21:27:04;;;;;;;18.98;10.25;;;;;;;-0.33;100.00;100511.50;10540152;28;20126;-56
2021/12/10 21:32:16;;;;;;;15.80;10.30;;;;;;;-0.08;100.00;100525.63;10539709;28;20044;-54
2021/12/10 21:42:59;;;;;;;19.67;12.15;;;;;;;-0.21;100.00;100544.72;10547311;28;20054;-54
2021/12/10 21:48:02;;;;;;;26.38;14.57;;;;;;;-0.19;100.00;100554.09;10543437;28;20048;-56
2021/12/10 21:53:06;;;;;;;17.52;11.20;;;;;;;-0.46;100.00;100557.13;10547211;28;20052;-55
2021/12/10 21:58:11;;;;;;;31.10;11.52;;;;;;;-0.66;100.00;100558.28;10547147;28;20412;-55
2021/12/10 22:03:22;;;;;;;21.80;10.25;;;;;;;-0.30;100.00;100588.59;10546968;28;20059;-55
2021/12/10 22:08:32;;;;;;;19.08;10.35;;;;;;;-0.64;100.00;100589.13;10547423;28;20055;-54
2021/12/10 22:13:41;;;;;;;18.52;10.07;;;;;;;-0.80;100.00;100601.34;10546876;28;20127;-54
2021/12/10 22:19:13;;;;;;;16.95;9.50;;;;;;;-0.82;100.00;100621.09;10546396;28;20446;-55
2021/12/10 22:24:23;;;;;;;15.48;10.30;;;;;;;-0.66;100.00;100630.28;10545923;28;20044;-57
2021/12/10 22:29:32;;;;;;;15.57;10.63;;;;;;;-0.94;100.00;100634.97;10546484;28;20101;-53
2021/12/10 22:34:53;;;;;;;24.08;11.27;;;;;;;-0.64;100.00;100659.41;10545788;28;20442;-56
2021/12/10 22:40:03;;;;;;;13.65;10.13;;;;;;;-0.63;100.00;100670.53;10546147;28;20063;-51
2021/12/10 22:45:28;;;;;;;25.20;12.63;;;;;;;-0.83;100.00;100678.50;10545181;28;20044;-56
2021/12/10 22:50:40;;;;;;;49.60;21.33;;;;;;;-0.69;100.00;100691.19;10541408;28;20044;-55
2021/12/10 22:55:44;;;;;;;52.53;25.48;;;;;;;-0.71;100.00;100700.63;10544931;28;20048;-56
2021/12/10 23:00:46;;;;;;;40.15;22.77;;;;;;;-0.67;100.00;100722.88;10545401;28;20051;-55
2021/12/10 23:06:07;;;;;;;32.38;18.75;;;;;;;-0.51;100.00;100731.25;10545405;28;20048;-56
2021/12/10 23:11:25;;;;;;;40.15;18.88;;;;;;;-0.92;100.00;100723.16;10544692;28;20055;-54
2021/12/10 23:16:48;;;;;;;40.17;18.15;;;;;;;-0.95;100.00;100736.91;10544237;28;20050;-57
2021/12/10 23:21:50;;;;;;;22.67;14.00;;;;;;;-0.85;100.00;100736.81;10543889;28;20515;-53
2021/12/10 23:27:13;;;;;;;25.50;14.20;;;;;;;-0.81;100.00;100746.16;10543677;28;20506;-50
2021/12/10 23:32:18;;;;;;;;;;;;;;;-0.56;100.00;100757.03;10543740;28;20055;-53
2021/12/10 23:37:21;;;;;;;28.30;14.30;;;;;;;-0.70;100.00;100762.34;10543452;28;19920;-53
2021/12/10 23:42:28;;;;;;;23.25;12.93;;;;;;;-0.98;100.00;100770.34;10525057;28;20055;-53
2021/12/10 23:47:36;;;;;;;28.38;14.43;;;;;;;-0.91;100.00;100772.84;10542836;28;20051;-55
2021/12/10 23:52:41;;;;;;;26.60;13.88;;;;;;;-1.09;100.00;100774.75;10541742;28;20044;-56
2021/12/10 23:57:49;;;;;;;26.48;15.10;;;;;;;-1.18;100.00;100782.53;10542444;28;20059;-55
